Time;durP1;ratioP1;P1;durP2;ratioP2;P2;SDS_P1;SDS_P2;PMS_P1;PMS_P2;Temp;Humidity;BMP_temperature;BMP_pressure;BME280_temperature;BME280_humidity;BME280_pressure;Samples;Min_cycle;Max_cycle;Signal;HPM_P1;HPM_P2
2022/08/11 00:01:44;;;;;;;;;;;;;;;;;;4892586;29;19947;-69
2022/08/11 00:04:11;;;;;;;;;;;;;;;;;;4905650;29;20006;-69
2022/08/11 00:06:38;;;;;;;;;;;;;;;;;;4891483;29;20058;-69
2022/08/11 00:09:05;;;;;;;;;;;;;;;;;;4891992;29;20366;-69
2022/08/11 00:11:33;;;;;;;;;;;;;;;;;;4891851;29;19933;-69
2022/08/11 00:14:00;;;;;;;;;;;;;;;;;;4891949;29;19931;-69
2022/08/11 00:16:27;;;;;;;;;;;;;;;;;;4891483;29;20299;-69
2022/08/11 00:18:55;;;;;;;;;;;;;;;;;;4891409;29;20022;-69
2022/08/11 00:21:22;;;;;;;;;;;;;;;;;;4891679;29;19931;-69
2022/08/11 00:24:10;;;;;;;;;;;;;;;;;;4906763;29;19927;-69
2022/08/11 00:26:37;;;;;;;;;;;;;;;;;;4890035;29;19931;-69
2022/08/11 00:29:05;;;;;;;;;;;;;;;;;;4899748;29;20384;-69
2022/08/11 00:31:32;;;;;;;;;;;;;;;;;;4868422;29;20686;-69
2022/08/11 00:33:59;;;;;;;;;;;;;;;;;;4874556;29;19968;-69
2022/08/11 00:36:26;;;;;;;;;;;;;;;;;;4882301;29;19928;-69
2022/08/11 00:38:54;;;;;;;;;;;;;;;;;;4884285;29;20307;-69
2022/08/11 00:41:21;;;;;;;;;;;;;;;;;;4883046;29;19947;-69
2022/08/11 00:43:49;;;;;;;;;;;;;;;;;;4886959;29;20390;-70
2022/08/11 00:46:16;;;;;;;;;;;;;;;;;;4886987;29;20296;-70
2022/08/11 00:48:44;;;;;;;;;;;;;;;;;;4900584;29;20026;-70
2022/08/11 00:51:11;;;;;;;;;;;;;;;;;;4889556;29;20407;-69
2022/08/11 00:53:38;;;;;;;;;;;;;;;;;;4888421;29;20332;-69
2022/08/11 00:56:05;;;;;;;;;;;;;;;;;;4902668;29;20323;-69
2022/08/11 00:58:33;;;;;;;;;;;;;;;;;;4887634;29;20336;-69
2022/08/11 01:01:00;;;;;;;;;;;;;;;;;;4889756;29;20455;-70
2022/08/11 01:03:28;;;;;;;;;;;;;;;;;;4887007;29;19958;-69
2022/08/11 01:05:56;;;;;;;;;;;;;;;;;;4876944;29;19932;-69
2022/08/11 01:08:23;;;;;;;;;;;;;;;;;;4885764;29;19991;-69
2022/08/11 01:10:50;;;;;;;;;;;;;;;;;;4884447;29;19935;-69
2022/08/11 01:13:19;;;;;;;;;;;;;;;;;;4885528;29;21576;-70
2022/08/11 01:15:46;;;;;;;;;;;;;;;;;;4890511;29;19938;-69
2022/08/11 01:18:23;;;;;;;;;;;;;;;;;;4888255;29;19976;-69
2022/08/11 01:20:54;;;;;;;;;;;;;;;;;;4890350;29;19935;-69
2022/08/11 01:23:21;;;;;;;;;;;;;;;;;;4890672;29;20035;-69
2022/08/11 01:25:49;;;;;;;;;;;;;;;;;;4889435;29;19983;-68
2022/08/11 01:28:23;;;;;;;;;;;;;;;;;;4890338;29;19954;-69
2022/08/11 01:30:50;;;;;;;;;;;;;;;;;;4890538;29;19927;-69
2022/08/11 01:33:20;;;;;;;;;;;;;;;;;;4889593;29;20037;-69
2022/08/11 01:35:47;;;;;;;;;;;;;;;;;;4889255;29;20311;-69
2022/08/11 01:38:14;;;;;;;;;;;;;;;;;;4888882;29;19971;-69
2022/08/11 01:40:42;;;;;;;;;;;;;;;;;;4887931;29;19944;-69
2022/08/11 01:45:55;;;;;;;;;;;;;;;;;;4883575;29;19935;-69
2022/08/11 01:48:22;;;;;;;;;;;;;;;;;;4884643;29;19931;-69
2022/08/11 01:50:50;;;;;;;;;;;;;;;;;;4888609;29;20008;-69
2022/08/11 01:53:17;;;;;;;;;;;;;;;;;;4890220;29;19934;-69
2022/08/11 01:55:44;;;;;;;;;;;;;;;;;;4890617;29;19970;-69
2022/08/11 01:58:12;;;;;;;;;;;;;;;;;;4885476;29;19935;-69
2022/08/11 02:00:42;;;;;;;;;;;;;;;;;;4879668;29;19931;-69
2022/08/11 02:03:09;;;;;;;;;;;;;;;;;;4889236;29;19942;-69
2022/08/11 02:05:36;;;;;;;;;;;;;;;;;;4889762;29;19982;-69
2022/08/11 02:08:04;;;;;;;;;;;;;;;;;;4887048;29;19938;-69
2022/08/11 02:13:18;;;;;;;;;;;;;;;;;;4889274;29;19975;-69
2022/08/11 02:15:46;;;;;;;;;;;;;;;;;;4890013;29;20038;-70
2022/08/11 02:18:13;;;;;;;;;;;;;;;;;;4889832;29;19979;-69
2022/08/11 02:23:38;;;;;;;;;;;;;;;;;;4890106;29;19927;-69
2022/08/11 02:26:25;;;;;;;;;;;;;;;;;;4889742;29;19931;-69
2022/08/11 02:28:53;;;;;;;;;;;;;;;;;;4891016;29;20567;-69
2022/08/11 02:34:27;;;;;;;;;;;;;;;;;;4884886;29;20138;-69
2022/08/11 02:36:54;;;;;;;;;;;;;;;;;;4886276;29;19942;-69
2022/08/11 02:39:21;;;;;;;;;;;;;;;;;;4888671;29;19932;-69
2022/08/11 02:44:34;;;;;;;;;;;;;;;;;;4875060;29;19980;-69
2022/08/11 02:47:01;;;;;;;;;;;;;;;;;;4874547;29;20362;-69
2022/08/11 02:52:15;;;;;;;;;;;;;;;;;;4893862;29;19932;-69
2022/08/11 02:54:42;;;;;;;;;;;;;;;;;;4893306;29;19931;-69
2022/08/11 02:57:09;;;;;;;;;;;;;;;;;;4892454;29;19970;-69
2022/08/11 02:59:49;;;;;;;;;;;;;;;;;;4891895;29;20448;-69
2022/08/11 03:02:17;;;;;;;;;;;;;;;;;;4911855;29;19950;-69
2022/08/11 03:04:48;;;;;;;;;;;;;;;;;;4911521;29;19932;-69
2022/08/11 03:07:15;;;;;;;;;;;;;;;;;;4902486;29;19927;-69
2022/08/11 03:09:54;;;;;;;;;;;;;;;;;;4892804;29;19935;-69
2022/08/11 03:17:54;;;;;;;;;;;;;;;;;;4892127;29;19931;-69
2022/08/11 03:20:22;;;;;;;;;;;;;;;;;;4891980;29;20582;-69
2022/08/11 03:22:49;;;;;;;;;;;;;;;;;;4892607;29;20026;-69
2022/08/11 03:25:16;;;;;;;;;;;;;;;;;;4892498;29;19938;-69
2022/08/11 03:27:43;;;;;;;;;;;;;;;;;;4892287;29;19937;-69
2022/08/11 03:30:10;;;;;;;;;;;;;;;;;;4892230;29;19932;-69
2022/08/11 03:32:38;;;;;;;;;;;;;;;;;;4892891;29;20100;-69
2022/08/11 03:35:05;;;;;;;;;;;;;;;;;;4892605;29;19963;-69
2022/08/11 03:37:49;;;;;;;;;;;;;;;;;;4891823;29;20023;-69
2022/08/11 03:41:41;;;;;;;;;;;;;;;;;;4891888;29;19987;-69
2022/08/11 03:43:03;;;;;;;;;;;;;;;;;;4891900;29;19931;-69
2022/08/11 03:45:31;;;;;;;;;;;;;;;;;;4892880;29;19942;-70
2022/08/11 03:47:58;;;;;;;;;;;;;;;;;;4891602;29;19970;-69
2022/08/11 03:50:25;;;;;;;;;;;;;;;;;;4892230;29;20330;-69
2022/08/11 03:52:52;;;;;;;;;;;;;;;;;;4892644;29;19942;-69
2022/08/11 03:55:20;;;;;;;;;;;;;;;;;;4891797;29;19928;-69
2022/08/11 03:57:48;;;;;;;;;;;;;;;;;;4905833;29;19927;-69
2022/08/11 04:00:15;;;;;;;;;;;;;;;;;;4890556;29;19932;-69
2022/08/11 04:02:42;;;;;;;;;;;;;;;;;;4891467;29;19968;-69
2022/08/11 04:05:10;;;;;;;;;;;;;;;;;;4891404;29;19957;-69
2022/08/11 04:07:37;;;;;;;;;;;;;;;;;;4891439;29;19931;-69
2022/08/11 04:10:04;;;;;;;;;;;;;;;;;;4905833;29;19962;-69
2022/08/11 04:12:31;;;;;;;;;;;;;;;;;;4891656;29;19931;-69
2022/08/11 04:17:49;;;;;;;;;;;;;;;;;;4891951;29;19983;-69
2022/08/11 04:20:16;;;;;;;;;;;;;;;;;;4906201;29;19938;-69
2022/08/11 04:22:43;;;;;;;;;;;;;;;;;;4891861;29;19932;-69
2022/08/11 04:25:11;;;;;;;;;;;;;;;;;;4890379;29;20466;-69
2022/08/11 04:27:38;;;;;;;;;;;;;;;;;;4890878;29;19931;-69
2022/08/11 04:30:05;;;;;;;;;;;;;;;;;;4905437;29;19931;-70
2022/08/11 04:32:35;;;;;;;;;;;;;;;;;;4891988;29;20466;-69
2022/08/11 04:35:02;;;;;;;;;;;;;;;;;;4892240;29;20148;-69
2022/08/11 04:37:36;;;;;;;;;;;;;;;;;;4891096;29;20104;-69
2022/08/11 04:40:03;;;;;;;;;;;;;;;;;;4891242;29;19995;-69
2022/08/11 04:45:16;;;;;;;;;;;;;;;;;;4892377;29;19999;-69
2022/08/11 05:01:54;;;;;;;;;;;;;;;;;;4889165;29;19931;-69
2022/08/11 05:07:07;;;;;;;;;;;;;;;;;;4889264;29;19951;-68
2022/08/11 05:09:34;;;;;;;;;;;;;;;;;;4890627;29;20610;-69
2022/08/11 05:12:01;;;;;;;;;;;;;;;;;;4888272;29;19951;-69
2022/08/11 05:36:54;;;;;;;;;;;;;;;;;;4881740;29;20407;-69
2022/08/11 05:56:55;;;;;;;;;;;;;;;;;;4897884;29;19959;-69
2022/08/11 05:59:22;;;;;;;;;;;;;;;;;;4878962;29;20608;-69
2022/08/11 06:01:50;;;;;;;;;;;;;;;;;;4880363;29;19931;-68
2022/08/11 06:04:17;;;;;;;;;;;;;;;;;;4887885;29;19957;-68
2022/08/11 06:06:44;;;;;;;;;;;;;;;;;;4903418;29;19995;-69
2022/08/11 06:09:13;;;;;;;;;;;;;;;;;;4888571;29;20356;-69
2022/08/11 06:11:40;;;;;;;;;;;;;;;;;;4889853;29;19935;-69
2022/08/11 06:14:10;;;;;;;;;;;;;;;;;;4889043;29;20273;-69
2022/08/11 06:16:37;;;;;;;;;;;;;;;;;;4889957;29;19927;-69
2022/08/11 06:19:05;;;;;;;;;;;;;;;;;;4890090;29;19932;-69
2022/08/11 06:21:32;;;;;;;;;;;;;;;;;;4892559;29;19927;-70
2022/08/11 06:23:59;;;;;;;;;;;;;;;;;;4888026;29;19931;-69
2022/08/11 06:26:26;;;;;;;;;;;;;;;;;;4890880;29;20591;-69
2022/08/11 06:28:54;;;;;;;;;;;;;;;;;;4892841;29;20360;-68
2022/08/11 06:31:23;;;;;;;;;;;;;;;;;;4892478;29;19946;-69
2022/08/11 06:33:50;;;;;;;;;;;;;;;;;;4892233;29;20375;-69
2022/08/11 06:36:17;;;;;;;;;;;;;;;;;;4892362;29;19937;-70
2022/08/11 06:38:44;;;;;;;;;;;;;;;;;;4892127;29;20022;-70
2022/08/11 06:41:30;;;;;;;;;;;;;;;;;;4884856;29;19938;-70
2022/08/11 06:43:57;;;;;;;;;;;;;;;;;;4889782;29;19939;-71
2022/08/11 06:46:30;;;;;;;;;;;;;;;;;;4897033;29;19971;-70
2022/08/11 06:48:58;;;;;;;;;;;;;;;;;;4886046;29;20225;-70
2022/08/11 06:51:25;;;;;;;;;;;;;;;;;;4889023;29;20391;-70
2022/08/11 06:53:52;;;;;;;;;;;;;;;;;;4886789;29;19931;-70
2022/08/11 07:02:19;;;;;;;;;;;;;;;;;;4890326;29;19931;-70
2022/08/11 07:04:47;;;;;;;;;;;;;;;;;;4888015;29;19932;-69
2022/08/11 07:15:42;;;;;;;;;;;;;;;;;;4904323;29;19939;-69
2022/08/11 07:30:12;;;;;;;;;;;;;;;;;;4882294;29;19931;-70
2022/08/11 07:32:39;;;;;;;;;;;;;;;;;;4878899;29;20238;-69
2022/08/11 07:35:06;;;;;;;;;;;;;;;;;;4885378;29;22249;-71
2022/08/11 07:37:33;;;;;;;;;;;;;;;;;;4887452;29;20384;-72
2022/08/11 07:40:01;;;;;;;;;;;;;;;;;;4888761;29;19935;-69
2022/08/11 07:42:28;;;;;;;;;;;;;;;;;;4890597;29;20437;-71
2022/08/11 07:53:15;;;;;;;;;;;;;;;;;;4889104;29;19971;-71
2022/08/11 07:55:42;;;;;;;;;;;;;;;;;;4890558;29;20351;-69
2022/08/11 08:17:52;;;;;;;;;;;;;;;;;;4872642;29;20022;-69
2022/08/11 08:20:36;;;;;;;;;;;;;;;;;;4872915;29;19963;-71
2022/08/11 08:23:03;;;;;;;;;;;;;;;;;;4872878;29;19932;-69
2022/08/11 08:25:31;;;;;;;;;;;;;;;;;;4875908;29;19939;-70
2022/08/11 08:27:58;;;;;;;;;;;;;;;;;;4891020;29;19931;-73
2022/08/11 08:33:11;;;;;;;;;;;;;;;;;;4904393;29;19931;-69
2022/08/11 08:35:38;;;;;;;;;;;;;;;;;;4896997;29;19967;-69
2022/08/11 08:38:20;;;;;;;;;;;;;;;;;;4903804;29;19932;-71
2022/08/11 08:40:48;;;;;;;;;;;;;;;;;;4901145;29;19928;-70
2022/08/11 08:43:16;;;;;;;;;;;;;;;;;;4900293;29;20353;-75
2022/08/11 08:45:43;;;;;;;;;;;;;;;;;;4896002;29;19931;-71
2022/08/11 08:48:10;;;;;;;;;;;;;;;;;;4898290;29;19975;-70
2022/08/11 08:53:27;;;;;;;;;;;;;;;;;;4894660;29;20420;-70
2022/08/11 08:55:55;;;;;;;;;;;;;;;;;;4892408;29;19935;-70
2022/08/11 08:58:22;;;;;;;;;;;;;;;;;;4891797;29;19927;-72
2022/08/11 09:00:50;;;;;;;;;;;;;;;;;;4888610;29;20388;-70
2022/08/11 09:03:18;;;;;;;;;;;;;;;;;;4890660;29;19935;-70
2022/08/11 09:06:05;;;;;;;;;;;;;;;;;;4887309;29;19938;-70
2022/08/11 09:08:33;;;;;;;;;;;;;;;;;;4888173;29;19936;-71
2022/08/11 09:13:47;;;;;;;;;;;;;;;;;;4888233;29;19954;-69
2022/08/11 09:16:31;;;;;;;;;;;;;;;;;;4878976;29;19939;-70
2022/08/11 09:19:00;;;;;;;;;;;;;;;;;;4890445;29;19931;-72
2022/08/11 09:21:27;;;;;;;;;;;;;;;;;;4889721;29;19934;-68
2022/08/11 09:27:02;;;;;;;;;;;;;;;;;;4885766;29;19938;-70
2022/08/11 09:29:30;;;;;;;;;;;;;;;;;;4854434;29;20384;-72
2022/08/11 09:31:57;;;;;;;;;;;;;;;;;;4866625;29;19931;-73
2022/08/11 09:34:25;;;;;;;;;;;;;;;;;;4896052;29;20088;-71
2022/08/11 09:44:45;;;;;;;;;;;;;;;;;;4879262;29;20009;-72
2022/08/11 09:45:15;;;;;;;;;;;;;;;;;;4884372;29;20322;-71
2022/08/11 09:47:42;;;;;;;;;;;;;;;;;;4886506;29;19936;-71
2022/08/11 09:50:10;;;;;;;;;;;;;;;;;;4902231;29;19959;-72
2022/08/11 09:52:38;;;;;;;;;;;;;;;;;;4855873;29;19935;-70
2022/08/11 09:55:18;;;;;;;;;;;;;;;;;;4899030;29;20005;-70
2022/08/11 10:00:32;;;;;;;;;;;;;;;;;;4889135;29;20380;-72
2022/08/11 10:03:01;;;;;;;;;;;;;;;;;;4888776;29;19986;-72
2022/08/11 10:08:15;;;;;;;;;;;;;;;;;;4885879;29;20894;-70
2022/08/11 10:10:42;;;;;;;;;;;;;;;;;;4891867;29;19935;-70
2022/08/11 10:13:10;;;;;;;;;;;;;;;;;;4885444;29;20428;-71
2022/08/11 10:15:57;;;;;;;;;;;;;;;;;;4886897;29;20291;-70
2022/08/11 10:18:41;;;;;;;;;;;;;;;;;;4893032;29;19932;-71
2022/08/11 10:21:08;;;;;;;;;;;;;;;;;;4883399;29;19931;-74
2022/08/11 10:34:49;;;;;;;;;;;;;;;;;;4890031;29;20395;-72
2022/08/11 10:37:21;;;;;;;;;;;;;;;;;;4880124;29;19935;-70
2022/08/11 10:39:48;;;;;;;;;;;;;;;;;;4885966;29;19931;-71
2022/08/11 10:48:09;;;;;;;;;;;;;;;;;;4886149;29;19958;-69
2022/08/11 10:59:00;;;;;;;;;;;;;;;;;;4884484;29;19939;-70
2022/08/11 11:01:30;;;;;;;;;;;;;;;;;;4886808;29;19932;-70
2022/08/11 11:03:57;;;;;;;;;;;;;;;;;;4889529;29;19934;-70
2022/08/11 11:06:25;;;;;;;;;;;;;;;;;;4888491;29;19963;-69
2022/08/11 11:08:55;;;;;;;;;;;;;;;;;;4887286;29;20018;-70
2022/08/11 11:19:37;;;;;;;;;;;;;;;;;;4882344;29;19931;-72
2022/08/11 11:24:50;;;;;;;;;;;;;;;;;;4893153;29;20460;-68
2022/08/11 11:27:17;;;;;;;;;;;;;;;;;;4892656;29;19932;-72
2022/08/11 11:29:45;;;;;;;;;;;;;;;;;;4892838;29;19931;-69
2022/08/11 11:32:12;;;;;;;;;;;;;;;;;;4891293;29;19928;-69
2022/08/11 11:34:39;;;;;;;;;;;;;;;;;;4892830;29;20033;-74
2022/08/11 11:37:19;;;;;;;;;;;;;;;;;;4891371;29;20320;-70
2022/08/11 11:39:46;;;;;;;;;;;;;;;;;;4891347;29;19928;-72
2022/08/11 11:42:14;;;;;;;;;;;;;;;;;;4890311;29;19982;-69
2022/08/11 11:44:41;;;;;;;;;;;;;;;;;;4883002;29;19928;-70
2022/08/11 11:47:08;;;;;;;;;;;;;;;;;;4889588;29;20022;-74
2022/08/11 11:49:39;;;;;;;;;;;;;;;;;;4892117;29;19959;-70
2022/08/11 11:52:06;;;;;;;;;;;;;;;;;;4892262;29;19931;-70
2022/08/11 11:54:35;;;;;;;;;;;;;;;;;;4889972;29;19927;-69
2022/08/11 12:02:35;;;;;;;;;;;;;;;;;;4883291;29;20303;-71
2022/08/11 12:05:02;;;;;;;;;;;;;;;;;;4887146;29;19931;-71
2022/08/11 12:10:23;;;;;;;;;;;;;;;;;;4878815;29;19940;-70
2022/08/11 12:15:36;;;;;;;;;;;;;;;;;;4880076;29;20408;-70
2022/08/11 12:18:23;;;;;;;;;;;;;;;;;;4887190;29;20038;-68
2022/08/11 12:20:51;;;;;;;;;;;;;;;;;;4887458;29;19954;-70
2022/08/11 12:28:56;;;;;;;;;;;;;;;;;;4888599;29;19971;-70
2022/08/11 12:31:27;;;;;;;;;;;;;;;;;;4883877;29;19932;-70
2022/08/11 12:33:54;;;;;;;;;;;;;;;;;;4890189;29;19941;-71
2022/08/11 12:36:22;;;;;;;;;;;;;;;;;;4888953;29;20015;-71
2022/08/11 12:38:49;;;;;;;;;;;;;;;;;;4890156;29;19931;-70
2022/08/11 12:46:51;;;;;;;;;;;;;;;;;;4891522;29;20386;-70
2022/08/11 12:52:09;;;;;;;;;;;;;;;;;;4893188;29;20426;-70
2022/08/11 12:54:41;;;;;;;;;;;;;;;;;;4891111;29;19928;-70
2022/08/11 13:05:36;;;;;;;;;;;;;;;;;;4891109;29;20344;-70
2022/08/11 13:08:10;;;;;;;;;;;;;;;;;;4889804;29;20351;-70
2022/08/11 13:13:23;;;;;;;;;;;;;;;;;;4929527;23;20008;-85
2022/08/11 13:16:10;;;;;;;;;;;;;;;;;;4873951;29;20010;-84
2022/08/11 13:18:38;;;;;;;;;;;;;;;;;;4875020;29;20312;-84
2022/08/11 13:21:05;;;;;;;;;;;;;;;;;;4874103;29;19932;-84
2022/08/11 13:23:32;;;;;;;;;;;;;;;;;;4875387;29;19931;-85
2022/08/11 13:26:00;;;;;;;;;;;;;;;;;;4873744;29;19931;-86
2022/08/11 13:35:58;;;;;;;;;;;;;;;;;;4887463;29;19943;-70
2022/08/11 13:38:25;;;;;;;;;;;;;;;;;;4888684;29;20340;-71
2022/08/11 13:40:53;;;;;;;;;;;;;;;;;;4889680;29;20391;-71
2022/08/11 13:43:22;;;;;;;;;;;;;;;;;;4889741;29;20058;-71
2022/08/11 13:45:51;;;;;;;;;;;;;;;;;;4890763;29;20327;-71
2022/08/11 13:48:18;;;;;;;;;;;;;;;;;;4888967;29;19934;-72
2022/08/11 13:53:31;;;;;;;;;;;;;;;;;;4890860;29;20470;-72
2022/08/11 13:55:59;;;;;;;;;;;;;;;;;;4891092;29;19928;-72
2022/08/11 13:58:26;;;;;;;;;;;;;;;;;;4890570;29;19928;-71
2022/08/11 14:01:06;;;;;;;;;;;;;;;;;;4890704;29;19927;-71
2022/08/11 14:03:53;;;;;;;;;;;;;;;;;;4890497;29;20475;-72
2022/08/11 14:06:41;;;;;;;;;;;;;;;;;;4890730;29;19927;-71
2022/08/11 14:09:08;;;;;;;;;;;;;;;;;;4891087;29;19974;-71
2022/08/11 14:14:41;;;;;;;;;;;;;;;;;;4890685;29;20595;-72
2022/08/11 14:17:09;;;;;;;;;;;;;;;;;;4889020;29;19974;-73
2022/08/11 14:19:36;;;;;;;;;;;;;;;;;;4887747;29;19935;-71
2022/08/11 14:22:06;;;;;;;;;;;;;;;;;;4885375;29;20383;-71
2022/08/11 14:24:34;;;;;;;;;;;;;;;;;;4890950;29;19932;-70
2022/08/11 14:27:01;;;;;;;;;;;;;;;;;;4888157;29;19936;-73
2022/08/11 14:29:31;;;;;;;;;;;;;;;;;;4889558;29;19954;-71
2022/08/11 14:31:58;;;;;;;;;;;;;;;;;;4879105;29;19938;-69
2022/08/11 14:34:26;;;;;;;;;;;;;;;;;;4882472;29;19935;-71
2022/08/11 14:36:53;;;;;;;;;;;;;;;;;;4902492;29;19935;-71
2022/08/11 14:39:21;;;;;;;;;;;;;;;;;;4906752;29;19932;-72
2022/08/11 14:47:24;;;;;;;;;;;;;;;;;;4892296;29;20467;-72
2022/08/11 14:49:52;;;;;;;;;;;;;;;;;;4881292;29;19928;-72
2022/08/11 14:52:28;;;;;;;;;;;;;;;;;;4905010;29;19986;-72
2022/08/11 14:57:41;;;;;;;;;;;;;;;;;;4873290;29;19936;-71
2022/08/11 15:00:28;;;;;;;;;;;;;;;;;;4874388;29;19928;-71
2022/08/11 15:03:11;;;;;;;;;;;;;;;;;;4873430;29;19936;-71
2022/08/11 15:05:40;;;;;;;;;;;;;;;;;;4873534;29;19932;-72
2022/08/11 15:08:07;;;;;;;;;;;;;;;;;;4888577;29;19991;-70
2022/08/11 15:10:35;;;;;;;;;;;;;;;;;;4872958;29;19936;-71
2022/08/11 15:13:02;;;;;;;;;;;;;;;;;;4874460;29;19939;-71
2022/08/11 15:18:15;;;;;;;;;;;;;;;;;;4880861;29;20307;-70
2022/08/11 15:26:15;;;;;;;;;;;;;;;;;;4877848;29;19991;-72
2022/08/11 15:39:33;;;;;;;;;;;;;;;;;;4886003;29;19936;-72
2022/08/11 15:47:33;;;;;;;;;;;;;;;;;;4885615;29;19934;-72
2022/08/11 15:50:00;;;;;;;;;;;;;;;;;;4882665;29;19986;-71
2022/08/11 15:52:38;;;;;;;;;;;;;;;;;;4884059;29;19931;-70
2022/08/11 15:55:05;;;;;;;;;;;;;;;;;;4888839;29;19927;-71
2022/08/11 16:06:33;;;;;;;;;;;;;;;;;;4872729;29;19939;-72
2022/08/11 16:09:04;;;;;;;;;;;;;;;;;;4872526;29;20003;-71
2022/08/11 16:11:31;;;;;;;;;;;;;;;;;;4872125;29;20000;-72
2022/08/11 16:16:45;;;;;;;;;;;;;;;;;;4871776;29;19939;-72
2022/08/11 16:19:12;;;;;;;;;;;;;;;;;;4872685;29;20416;-70
2022/08/11 16:21:41;;;;;;;;;;;;;;;;;;4874436;29;19932;-70
2022/08/11 16:24:09;;;;;;;;;;;;;;;;;;4886283;29;19939;-71
2022/08/11 16:26:56;;;;;;;;;;;;;;;;;;4890844;29;19932;-70
2022/08/11 16:29:38;;;;;;;;;;;;;;;;;;4891210;29;19932;-71
2022/08/11 16:32:17;;;;;;;;;;;;;;;;;;4891502;29;20411;-71
2022/08/11 16:40:17;;;;;;;;;;;;;;;;;;4876127;29;19927;-71
2022/08/11 16:48:23;;;;;;;;;;;;;;;;;;4910416;29;20002;-71
2022/08/11 16:51:01;;;;;;;;;;;;;;;;;;4886639;29;19951;-71
2022/08/11 16:53:29;;;;;;;;;;;;;;;;;;4877496;29;20383;-71
2022/08/11 16:56:16;;;;;;;;;;;;;;;;;;4897933;29;19943;-71
2022/08/11 17:01:29;;;;;;;;;;;;;;;;;;4910209;29;20314;-72
2022/08/11 17:15:01;;;;;;;;;;;;;;;;;;4889917;29;20364;-72
2022/08/11 17:17:28;;;;;;;;;;;;;;;;;;4890032;29;19935;-71
2022/08/11 17:19:55;;;;;;;;;;;;;;;;;;4878428;29;20486;-72
2022/08/11 17:25:31;;;;;;;;;;;;;;;;;;4891519;29;19928;-72
2022/08/11 17:27:58;;;;;;;;;;;;;;;;;;4890679;29;20419;-72
2022/08/11 17:35:27;;;;;;;;;;;;;;;;;;4891634;29;20162;-72
2022/08/11 17:35:58;;;;;;;;;;;;;;;;;;4891370;29;20273;-71
2022/08/11 17:38:25;;;;;;;;;;;;;;;;;;4890530;29;19931;-71
2022/08/11 17:49:19;;;;;;;;;;;;;;;;;;4891104;29;19931;-71
2022/08/11 18:00:05;;;;;;;;;;;;;;;;;;4892845;29;19980;-71
2022/08/11 18:05:24;;;;;;;;;;;;;;;;;;4893344;29;19927;-72
